Time;durP1;ratioP1;P1;durP2;ratioP2;P2;SDS_P1;SDS_P2;PMS_P1;PMS_P2;Temp;Humidity;BMP_temperature;BMP_pressure;BME280_temperature;BME280_humidity;BME280_pressure;Samples;Min_cycle;Max_cycle;Signal;HPM_P1;HPM_P2
2023/05/25 00:00:37;;;;;;;11.02;3.20;;;;;;;10.35;75.02;102455.44;5031661;28;20031;-78
2023/05/25 00:03:02;;;;;;;8.25;3.20;;;;;;;10.33;74.57;102460.66;5028646;28;20468;-78
2023/05/25 00:05:28;;;;;;;9.35;3.20;;;;;;;10.31;74.73;102457.19;5030848;28;20022;-78
2023/05/25 00:07:54;;;;;;;7.70;3.05;;;;;;;10.29;74.79;102451.13;5030958;28;20036;-78
2023/05/25 00:10:20;;;;;;;7.50;3.30;;;;;;;10.26;74.85;102454.59;5030390;28;20018;-78
2023/05/25 00:12:45;;;;;;;8.60;3.40;;;;;;;10.26;74.72;102451.09;5028396;28;20468;-78
2023/05/25 00:15:10;;;;;;;6.35;3.17;;;;;;;10.23;74.76;102451.13;5028248;28;20133;-78
2023/05/25 00:17:36;;;;;;;5.40;3.00;;;;;;;10.21;74.65;102458.91;5030741;28;20498;-78
2023/05/25 00:20:06;;;;;;;7.05;3.28;;;;;;;10.22;74.71;102465.00;5030543;28;20028;-78
2023/05/25 00:22:33;;;;;;;7.93;3.00;;;;;;;10.18;74.86;102458.91;5028187;28;20025;-78
2023/05/25 00:24:58;;;;;;;9.00;3.08;;;;;;;10.15;75.42;102458.91;5027712;28;20485;-78
2023/05/25 00:27:24;;;;;;;8.25;3.38;;;;;;;10.12;75.81;102462.34;5030290;28;20033;-78
2023/05/25 00:29:49;;;;;;;7.05;2.90;;;;;;;10.10;75.31;102465.81;5028936;28;20473;-77
2023/05/25 00:32:15;;;;;;;7.00;3.10;;;;;;;10.07;75.34;102466.69;5031073;28;20033;-77
2023/05/25 00:34:40;;;;;;;8.82;3.67;;;;;;;10.03;75.67;102457.16;5031002;28;20025;-78
2023/05/25 00:37:06;;;;;;;8.20;3.28;;;;;;;10.01;75.72;102464.06;5032818;28;20026;-78
2023/05/25 00:39:31;;;;;;;6.30;3.17;;;;;;;10.00;75.59;102459.72;5034899;28;20526;-78
2023/05/25 00:41:57;;;;;;;7.20;3.28;;;;;;;9.98;76.03;102461.47;5033183;28;20525;-78
2023/05/25 00:44:23;;;;;;;8.93;2.92;;;;;;;9.96;75.83;102457.97;5032573;28;20025;-78
2023/05/25 00:46:50;;;;;;;8.60;3.45;;;;;;;9.97;75.70;102454.53;5033779;28;20032;-78
2023/05/25 00:49:17;;;;;;;8.60;3.42;;;;;;;9.96;75.80;102457.97;5034042;28;20048;-78
2023/05/25 00:51:45;;;;;;;6.78;3.10;;;;;;;9.94;75.98;102462.31;5032439;28;20112;-78
2023/05/25 00:54:14;;;;;;;6.82;3.10;;;;;;;9.92;76.06;102461.44;5030721;28;20120;-78
2023/05/25 00:56:45;;;;;;;10.40;3.30;;;;;;;9.92;75.80;102458.81;5033569;28;20021;-78
2023/05/25 00:59:16;;;;;;;6.50;3.03;;;;;;;9.91;75.73;102467.50;5032992;28;20059;-78
2023/05/25 01:01:44;;;;;;;7.57;3.28;;;;;;;9.85;76.22;102460.53;5033269;28;20420;-78
2023/05/25 01:04:14;;;;;;;7.15;3.20;;;;;;;9.84;76.29;102464.00;5032610;28;20027;-78
2023/05/25 01:06:44;;;;;;;8.48;3.08;;;;;;;9.82;76.26;102466.59;5033553;28;20039;-78
2023/05/25 01:09:14;;;;;;;7.82;2.90;;;;;;;9.82;76.29;102466.59;5032691;28;20400;-78
2023/05/25 01:11:43;;;;;;;6.38;2.92;;;;;;;9.80;76.39;102473.53;5032127;28;20071;-78
2023/05/25 01:14:08;;;;;;;8.70;3.50;;;;;;;9.78;76.52;102464.84;5032579;28;20029;-78
2023/05/25 01:16:36;;;;;;;7.18;3.03;;;;;;;9.76;76.46;102463.97;5032106;28;20029;-81
2023/05/25 01:19:02;;;;;;;6.85;3.20;;;;;;;9.74;76.43;102470.91;5032400;28;20029;-81
2023/05/25 01:21:40;;;;;;;8.70;3.72;;;;;;;9.72;75.92;102460.50;5031999;28;20056;-78
2023/05/25 01:24:16;;;;;;;7.20;3.22;;;;;;;9.70;76.48;102477.81;5031069;28;20507;-78
2023/05/25 01:26:47;;;;;;;6.60;2.90;;;;;;;9.67;76.59;102479.53;5032421;28;20040;-78
2023/05/25 01:29:14;;;;;;;7.22;3.22;;;;;;;9.63;76.40;102476.06;5032981;28;20388;-78
2023/05/25 01:31:40;;;;;;;9.60;3.38;;;;;;;9.60;76.57;102483.84;5033103;28;20029;-78
2023/05/25 01:34:06;;;;;;;8.07;3.25;;;;;;;9.55;76.34;102489.03;5032496;28;20025;-78
2023/05/25 01:36:32;;;;;;;6.43;2.90;;;;;;;9.51;75.88;102492.47;5032726;28;20498;-78
2023/05/25 01:38:58;;;;;;;8.07;2.92;;;;;;;9.45;76.99;102497.63;5032204;28;20101;-77
2023/05/25 01:41:23;;;;;;;6.68;3.20;;;;;;;9.41;76.89;102491.53;5032824;28;20431;-78
2023/05/25 01:43:49;;;;;;;7.55;3.08;;;;;;;9.38;77.19;102495.84;5030469;28;20029;-78
2023/05/25 01:46:26;;;;;;;5.53;2.72;;;;;;;9.35;76.91;102496.69;5031434;28;20120;-78
2023/05/25 01:49:07;;;;;;;7.03;2.92;;;;;;;9.34;76.91;102500.16;5033165;28;20049;-78
2023/05/25 01:51:48;;;;;;;6.20;3.30;;;;;;;9.33;76.58;102488.00;5033185;28;20025;-77
2023/05/25 01:54:21;;;;;;;5.90;3.00;;;;;;;9.32;77.06;102495.81;5031997;28;20075;-77
2023/05/25 01:56:49;;;;;;;6.80;2.95;;;;;;;9.25;77.78;102495.75;5031765;28;20559;-77
2023/05/25 01:59:19;;;;;;;4.93;2.65;;;;;;;9.26;78.02;102496.66;5032486;28;20108;-77
2023/05/25 02:01:46;;;;;;;6.90;2.97;;;;;;;9.22;77.89;102494.88;5033305;28;20021;-77
2023/05/25 02:04:11;;;;;;;7.20;3.50;;;;;;;9.19;77.73;102503.53;5031918;28;20033;-77
2023/05/25 02:06:37;;;;;;;8.60;3.05;;;;;;;9.18;77.98;102499.19;5031037;28;20480;-77
2023/05/25 02:09:03;;;;;;;6.25;3.00;;;;;;;9.20;77.84;102486.22;5030748;28;20123;-78
2023/05/25 02:11:28;;;;;;;6.32;3.10;;;;;;;9.17;78.02;102497.44;5031339;28;20384;-78
2023/05/25 02:13:53;;;;;;;7.90;3.35;;;;;;;9.15;77.87;102493.97;5031023;28;20037;-78
2023/05/25 02:16:19;;;;;;;6.50;3.20;;;;;;;9.14;78.23;102494.81;5031981;28;20476;-78
2023/05/25 02:18:44;;;;;;;7.50;3.10;;;;;;;9.13;78.29;102495.69;5031789;28;20029;-77
2023/05/25 02:21:10;;;;;;;7.40;2.97;;;;;;;9.12;78.17;102499.13;5030849;28;20099;-77
2023/05/25 02:23:35;;;;;;;7.22;3.25;;;;;;;9.11;77.38;102500.00;5032553;28;20082;-77
2023/05/25 02:26:01;;;;;;;6.45;3.25;;;;;;;9.07;77.66;102500.81;5030739;28;20515;-77
2023/05/25 02:28:26;;;;;;;6.45;3.08;;;;;;;9.03;77.84;102499.09;5031828;28;20528;-77
2023/05/25 02:30:51;;;;;;;5.32;2.80;;;;;;;8.99;77.84;102498.16;5030920;28;20037;-78
2023/05/25 02:33:17;;;;;;;6.47;3.17;;;;;;;8.95;77.71;102491.25;5032022;28;20022;-77
2023/05/25 02:35:43;;;;;;;6.05;3.10;;;;;;;8.88;77.70;102490.28;5031588;28;20128;-78
2023/05/25 02:38:08;;;;;;;7.32;3.55;;;;;;;8.85;78.80;102492.91;5030481;28;20025;-78
2023/05/25 02:40:33;;;;;;;7.72;3.10;;;;;;;8.85;78.91;102492.00;5030444;28;20193;-78
2023/05/25 02:42:59;;;;;;;6.82;3.63;;;;;;;8.86;79.37;102492.03;5031105;28;20171;-78
2023/05/25 02:45:24;;;;;;;5.07;2.70;;;;;;;8.85;79.26;102492.91;5030104;28;20025;-78
2023/05/25 02:47:50;;;;;;;4.82;2.92;;;;;;;8.83;79.63;102497.19;5029951;28;20033;-78
2023/05/25 02:50:15;;;;;;;5.50;3.03;;;;;;;8.87;79.04;102498.09;5030680;28;20025;-78
2023/05/25 02:52:40;;;;;;;7.82;3.47;;;;;;;8.85;78.89;102489.41;5030838;28;20049;-78
2023/05/25 02:55:08;;;;;;;5.72;2.90;;;;;;;8.85;78.71;102494.59;5031435;28;20041;-77
2023/05/25 02:57:35;;;;;;;5.95;2.95;;;;;;;8.81;78.76;102498.91;5028913;28;20128;-78
2023/05/25 03:00:01;;;;;;;7.88;3.38;;;;;;;8.76;78.74;102500.59;5029606;28;20032;-78
2023/05/25 03:02:27;;;;;;;8.07;3.45;;;;;;;8.70;78.59;102492.78;5030668;28;20026;-78
2023/05/25 03:04:53;;;;;;;7.50;2.90;;;;;;;8.68;78.57;102491.88;5031879;28;20020;-78
2023/05/25 03:07:19;;;;;;;6.05;3.25;;;;;;;8.64;79.02;102502.22;5029399;28;20104;-78
2023/05/25 03:09:45;;;;;;;5.38;3.20;;;;;;;8.67;79.43;102505.72;5029307;28;20384;-78
2023/05/25 03:12:10;;;;;;;5.65;3.15;;;;;;;8.66;78.89;102504.81;5027935;28;20032;-78
2023/05/25 03:14:35;;;;;;;6.07;2.95;;;;;;;8.63;79.16;102504.78;5029806;28;20021;-78
2023/05/25 03:17:00;;;;;;;7.47;3.28;;;;;;;8.60;79.15;102509.97;5029240;28;20085;-78
2023/05/25 03:19:26;;;;;;;6.25;3.28;;;;;;;8.58;79.35;102512.53;5031561;28;20495;-78
2023/05/25 03:21:51;;;;;;;5.97;3.17;;;;;;;8.58;79.60;102520.31;5029966;28;20025;-78
2023/05/25 03:24:16;;;;;;;5.05;2.70;;;;;;;8.58;79.59;102517.72;5029027;28;20040;-78
2023/05/25 03:26:41;;;;;;;7.32;3.40;;;;;;;8.57;79.73;102521.16;5030790;28;20496;-78
2023/05/25 03:29:07;;;;;;;6.75;3.13;;;;;;;8.53;80.11;102523.72;5029009;28;20033;-78
2023/05/25 03:31:32;;;;;;;9.75;3.67;;;;;;;8.49;80.43;102523.69;5031487;28;20366;-78
2023/05/25 03:33:57;;;;;;;7.38;3.40;;;;;;;8.50;79.95;102532.34;5029723;28;20021;-78
2023/05/25 03:36:26;;;;;;;5.78;3.28;;;;;;;8.48;80.15;102526.28;5030053;28;20017;-78
2023/05/25 03:38:52;;;;;;;8.20;3.35;;;;;;;8.47;80.08;102535.72;5030550;28;20025;-77
2023/05/25 03:41:17;;;;;;;8.82;3.83;;;;;;;8.49;80.03;102538.41;5029926;28;20523;-77
2023/05/25 03:43:42;;;;;;;9.30;3.60;;;;;;;8.50;80.10;102545.31;5030281;28;20022;-78
2023/05/25 03:46:10;;;;;;;5.80;3.42;;;;;;;8.49;80.00;102549.63;5029317;28;20486;-77
2023/05/25 03:48:35;;;;;;;7.50;3.70;;;;;;;8.49;80.73;102543.59;5029800;28;20484;-78
2023/05/25 03:51:00;;;;;;;8.88;3.40;;;;;;;8.49;80.64;102546.19;5030628;28;20028;-77
2023/05/25 03:53:26;;;;;;;7.82;3.67;;;;;;;8.49;80.63;102544.44;5030129;28;20131;-77
2023/05/25 03:55:51;;;;;;;9.93;3.63;;;;;;;8.47;81.02;102545.25;5029919;28;20025;-77
2023/05/25 03:58:17;;;;;;;8.43;3.70;;;;;;;8.47;80.69;102550.44;5030677;28;20096;-77
2023/05/25 04:00:42;;;;;;;5.65;3.35;;;;;;;8.46;81.09;102559.94;5030286;28;20091;-77
2023/05/25 04:03:09;;;;;;;11.57;4.13;;;;;;;8.47;81.26;102553.03;5029388;28;20110;-77
2023/05/25 04:05:35;;;;;;;8.40;3.78;;;;;;;8.47;80.92;102553.88;5032434;28;20032;-78
2023/05/25 04:08:02;;;;;;;10.80;3.92;;;;;;;8.47;81.44;102546.09;5033841;28;20021;-77
2023/05/25 04:10:27;;;;;;;8.45;3.60;;;;;;;8.47;81.58;102553.03;5031313;28;20120;-77
2023/05/25 04:12:55;;;;;;;6.75;3.42;;;;;;;8.50;81.50;102551.38;5032745;28;20104;-77
2023/05/25 04:15:21;;;;;;;7.82;3.63;;;;;;;8.56;81.55;102554.88;5032168;28;20014;-77
2023/05/25 04:17:46;;;;;;;7.80;3.97;;;;;;;8.59;81.48;102554.94;5035159;28;20354;-77
2023/05/25 04:20:11;;;;;;;8.40;3.80;;;;;;;8.59;81.06;102558.38;5033817;28;20031;-78
2023/05/25 04:22:37;;;;;;;7.20;3.60;;;;;;;8.60;81.16;102561.84;5032470;28;20028;-77
2023/05/25 04:25:06;;;;;;;7.72;3.85;;;;;;;8.59;81.43;102553.19;5033313;28;20033;-77
2023/05/25 04:27:32;;;;;;;8.15;3.72;;;;;;;8.61;81.72;102564.47;5033720;28;20114;-77
2023/05/25 04:29:57;;;;;;;6.68;3.60;;;;;;;8.67;81.26;102557.59;5033248;28;20114;-77
2023/05/25 04:32:22;;;;;;;8.07;3.92;;;;;;;8.69;81.54;102561.94;5034295;28;20485;-77
2023/05/25 04:34:48;;;;;;;6.07;3.63;;;;;;;8.70;82.12;102565.41;5033944;28;20029;-78
2023/05/25 04:37:13;;;;;;;8.57;3.65;;;;;;;8.74;82.06;102565.47;5033090;28;20053;-78
2023/05/25 04:39:38;;;;;;;8.23;3.78;;;;;;;8.78;81.68;102564.63;5032433;28;20025;-77
2023/05/25 04:42:04;;;;;;;7.68;3.80;;;;;;;8.83;81.63;102569.88;5032076;28;20033;-77
2023/05/25 04:44:30;;;;;;;5.90;3.47;;;;;;;8.88;81.77;102568.16;5032777;28;20528;-77
2023/05/25 04:46:56;;;;;;;8.38;3.85;;;;;;;8.92;81.32;102569.09;5031447;28;20032;-77
2023/05/25 04:49:21;;;;;;;6.88;3.58;;;;;;;8.95;81.41;102564.78;5034433;28;20022;-77
2023/05/25 04:51:47;;;;;;;7.00;3.90;;;;;;;8.96;81.71;102568.25;5032529;28;20546;-78
2023/05/25 04:54:12;;;;;;;7.78;4.18;;;;;;;9.00;81.73;102574.34;5034553;28;20037;-77
2023/05/25 04:56:37;;;;;;;8.30;4.30;;;;;;;9.03;81.92;102572.63;5034124;28;20100;-77
2023/05/25 04:59:03;;;;;;;7.45;4.35;;;;;;;9.04;82.28;102578.72;5032792;28;20480;-77
2023/05/25 05:01:29;;;;;;;7.95;4.18;;;;;;;9.08;82.48;102586.53;5032277;28;20018;-77
2023/05/25 05:03:55;;;;;;;8.50;4.75;;;;;;;9.15;82.53;102578.78;5032967;28;20030;-78
2023/05/25 05:06:20;;;;;;;8.30;4.50;;;;;;;9.20;82.37;102582.28;5031039;28;20033;-77
2023/05/25 05:08:46;;;;;;;9.18;4.40;;;;;;;9.24;82.92;102586.66;5032274;28;20036;-77
2023/05/25 05:11:11;;;;;;;8.95;4.63;;;;;;;9.28;83.00;102585.84;5032509;28;20038;-77
2023/05/25 05:13:36;;;;;;;7.22;4.20;;;;;;;9.35;83.55;102589.34;5030649;28;20464;-77
2023/05/25 05:16:02;;;;;;;11.27;4.60;;;;;;;9.41;83.40;102587.66;5029942;28;20112;-77
2023/05/25 05:18:27;;;;;;;7.72;4.57;;;;;;;9.48;83.31;102585.97;5029356;28;20102;-77
2023/05/25 05:20:53;;;;;;;8.15;4.38;;;;;;;9.57;83.77;102585.16;5029100;28;20542;-77
2023/05/25 05:23:18;;;;;;;10.25;5.00;;;;;;;9.64;83.60;102586.06;5031659;28;20498;-77
2023/05/25 05:25:44;;;;;;;7.38;4.40;;;;;;;9.71;83.51;102590.47;5033650;28;20483;-77
2023/05/25 05:28:10;;;;;;;8.88;4.70;;;;;;;9.78;83.61;102594.81;5033922;28;20017;-76
2023/05/25 05:30:35;;;;;;;8.55;4.50;;;;;;;9.87;83.57;102594.00;5033174;28;20083;-76
2023/05/25 05:33:01;;;;;;;9.27;4.90;;;;;;;9.95;83.70;102599.22;5032581;28;20027;-77
2023/05/25 05:35:26;;;;;;;9.18;4.90;;;;;;;10.01;83.71;102604.47;5033937;28;20473;-77
2023/05/25 05:37:51;;;;;;;9.40;4.60;;;;;;;10.06;83.80;102605.38;5033940;28;20021;-77
2023/05/25 05:40:17;;;;;;;8.80;4.50;;;;;;;10.14;83.79;102606.28;5033984;28;20029;-77
2023/05/25 05:42:42;;;;;;;8.73;4.43;;;;;;;10.21;83.48;102609.75;5029952;28;20022;-77
2023/05/25 05:45:08;;;;;;;8.23;4.50;;;;;;;10.29;82.84;102612.41;5033325;28;20515;-77
2023/05/25 05:47:33;;;;;;;8.73;4.38;;;;;;;10.36;83.34;102616.78;5033449;28;20029;-77
2023/05/25 05:49:58;;;;;;;8.02;4.45;;;;;;;10.43;82.42;102615.94;5033646;28;20025;-77
2023/05/25 05:52:24;;;;;;;9.48;4.82;;;;;;;10.52;82.94;102619.47;5032200;28;20045;-77
2023/05/25 05:54:49;;;;;;;8.30;4.68;;;;;;;10.56;83.09;102618.59;5033237;28;20044;-77
2023/05/25 05:57:14;;;;;;;10.18;4.90;;;;;;;10.62;82.94;102621.22;5033641;28;20025;-77
2023/05/25 05:59:40;;;;;;;10.77;4.72;;;;;;;10.71;82.05;102617.75;5033547;28;20427;-77
2023/05/25 06:02:06;;;;;;;9.80;4.90;;;;;;;10.75;82.91;102627.31;5033435;28;20029;-77
2023/05/25 06:04:31;;;;;;;9.20;5.00;;;;;;;10.83;82.23;102633.44;5033606;28;20025;-78
2023/05/25 06:06:57;;;;;;;8.70;5.03;;;;;;;10.88;82.13;102625.63;5033269;28;20037;-77
2023/05/25 06:09:23;;;;;;;8.10;4.90;;;;;;;10.92;82.99;102625.63;5033366;28;20025;-77
2023/05/25 06:11:48;;;;;;;9.15;5.05;;;;;;;10.98;82.75;102629.97;5033231;28;20064;-77
2023/05/25 06:14:13;;;;;;;11.60;5.18;;;;;;;11.04;81.60;102627.38;5033346;28;20037;-77
2023/05/25 06:16:39;;;;;;;7.93;4.80;;;;;;;11.12;82.18;102623.91;5033317;28;20027;-77
2023/05/25 06:19:04;;;;;;;9.30;4.47;;;;;;;11.18;82.26;102632.63;5033210;28;20381;-77
2023/05/25 06:21:30;;;;;;;9.60;4.50;;;;;;;11.27;81.15;102636.06;5033129;28;20424;-77
2023/05/25 06:23:58;;;;;;;9.18;4.32;;;;;;;11.28;81.34;102630.84;5032998;28;20028;-77
2023/05/25 06:26:23;;;;;;;7.70;4.28;;;;;;;11.32;81.31;102640.41;5033132;28;20083;-77
2023/05/25 06:28:49;;;;;;;8.95;4.07;;;;;;;11.33;80.59;102642.16;5032061;28;20036;-77
2023/05/25 06:31:15;;;;;;;12.13;4.50;;;;;;;11.38;80.11;102644.75;5032896;28;20033;-77
2023/05/25 06:33:40;;;;;;;10.45;4.15;;;;;;;11.37;80.35;102649.09;5032935;28;20385;-77
2023/05/25 06:36:06;;;;;;;7.80;4.22;;;;;;;11.39;80.32;102652.59;5033015;28;20040;-77
2023/05/25 06:38:32;;;;;;;11.18;4.38;;;;;;;11.41;80.70;102655.19;5032731;28;20017;-77
2023/05/25 06:41:01;;;;;;;9.00;4.15;;;;;;;11.48;80.67;102650.84;5032750;28;20018;-77
2023/05/25 06:43:27;;;;;;;8.50;3.83;;;;;;;11.59;80.29;102654.31;5031432;28;20025;-81
2023/05/25 06:45:52;;;;;;;10.15;4.05;;;;;;;11.70;80.64;102656.91;5032677;28;20021;-77
2023/05/25 06:48:17;;;;;;;6.85;4.07;;;;;;;11.81;79.13;102662.09;5032582;28;20035;-77
2023/05/25 06:50:44;;;;;;;7.75;3.88;;;;;;;11.99;78.39;102658.63;5032646;28;20492;-77
2023/05/25 06:53:10;;;;;;;7.65;3.58;;;;;;;12.13;79.57;102651.63;5032399;28;20053;-77
2023/05/25 06:55:35;;;;;;;6.50;3.78;;;;;;;12.23;77.34;102662.91;5031180;28;20021;-77
2023/05/25 06:58:01;;;;;;;7.13;3.38;;;;;;;12.26;77.48;102662.91;5032447;28;20087;-77
2023/05/25 07:00:26;;;;;;;7.65;3.95;;;;;;;12.33;78.26;102657.66;5032397;28;20112;-77
2023/05/25 07:02:51;;;;;;;8.73;4.38;;;;;;;12.38;77.22;102661.97;5032348;28;20103;-77
2023/05/25 07:05:16;;;;;;;8.20;4.35;;;;;;;12.46;78.49;102667.19;5031168;28;20036;-77
2023/05/25 07:07:42;;;;;;;9.38;4.30;;;;;;;12.52;77.99;102664.53;5032197;28;20416;-77
2023/05/25 07:10:08;;;;;;;9.50;4.45;;;;;;;12.56;76.40;102666.25;5032201;28;20093;-77
2023/05/25 07:12:33;;;;;;;8.38;4.20;;;;;;;12.60;75.58;102662.75;5032253;28;20516;-77
2023/05/25 07:14:58;;;;;;;8.63;4.25;;;;;;;12.64;75.98;102662.75;5032231;28;20036;-77
2023/05/25 07:17:23;;;;;;;6.00;3.80;;;;;;;12.68;75.25;102669.66;5032156;28;20025;-77
2023/05/25 07:19:49;;;;;;;7.38;3.78;;;;;;;12.72;73.69;102661.81;5032075;28;20052;-77
2023/05/25 07:22:17;;;;;;;6.65;3.95;;;;;;;12.77;73.64;102664.41;5032017;28;20033;-77
2023/05/25 07:24:43;;;;;;;6.18;3.35;;;;;;;12.80;72.73;102667.00;5032094;28;20037;-78
2023/05/25 07:27:09;;;;;;;8.20;3.60;;;;;;;12.83;72.48;102661.75;5031884;28;20033;-77
2023/05/25 07:29:34;;;;;;;6.75;3.80;;;;;;;12.86;71.54;102669.56;5031980;28;20029;-77
2023/05/25 07:31:59;;;;;;;10.98;3.78;;;;;;;12.88;72.40;102673.03;5031908;28;20033;-77
2023/05/25 07:34:24;;;;;;;7.55;3.33;;;;;;;12.93;72.84;102664.31;5031993;28;20107;-77
2023/05/25 07:36:50;;;;;;;7.10;2.90;;;;;;;12.95;71.09;102675.63;5031887;28;20047;-77
2023/05/25 07:39:15;;;;;;;10.02;3.78;;;;;;;12.99;71.89;102674.72;5031977;28;20051;-77
2023/05/25 07:41:40;;;;;;;10.50;4.20;;;;;;;13.03;71.76;102665.97;5031534;28;20029;-77
2023/05/25 07:44:05;;;;;;;8.43;3.33;;;;;;;13.06;70.08;102676.41;5031810;28;20107;-77
2023/05/25 07:46:31;;;;;;;7.25;3.47;;;;;;;13.09;70.29;102678.13;5030525;28;20017;-77
2023/05/25 07:48:58;;;;;;;8.50;3.58;;;;;;;13.12;71.10;102679.00;5031648;28;20056;-77
2023/05/25 07:51:25;;;;;;;7.47;3.35;;;;;;;13.21;69.83;102678.06;5031703;28;20021;-77
2023/05/25 07:53:52;;;;;;;9.07;3.63;;;;;;;13.31;69.73;102684.09;5031623;28;20128;-77
2023/05/25 07:56:18;;;;;;;9.35;3.63;;;;;;;13.38;69.27;102685.78;5031655;28;20091;-77
2023/05/25 07:58:43;;;;;;;7.80;3.42;;;;;;;13.42;69.08;102687.53;5031541;28;20029;-77
2023/05/25 08:01:08;;;;;;;7.72;3.65;;;;;;;13.44;69.47;102683.16;5030248;28;20061;-77
2023/05/25 08:03:34;;;;;;;10.75;4.13;;;;;;;13.44;69.16;102682.28;5031660;28;20040;-77
2023/05/25 08:05:59;;;;;;;9.60;3.50;;;;;;;13.43;68.51;102693.59;5031612;28;20108;-77
2023/05/25 08:08:25;;;;;;;7.75;3.55;;;;;;;13.43;68.31;102684.03;5031510;28;20025;-77
2023/05/25 08:10:50;;;;;;;7.47;3.08;;;;;;;13.42;68.84;102681.41;5031516;28;20370;-77
2023/05/25 08:13:15;;;;;;;7.53;3.10;;;;;;;13.44;68.76;102691.00;5031558;28;20033;-77
2023/05/25 08:15:40;;;;;;;9.13;3.30;;;;;;;13.53;68.77;102689.16;5031440;28;20057;-77
2023/05/25 08:18:06;;;;;;;7.07;3.13;;;;;;;13.58;68.33;102690.84;5031588;28;20029;-77
2023/05/25 08:20:31;;;;;;;8.90;3.03;;;;;;;13.61;67.33;102693.47;5031412;28;20052;-77
2023/05/25 08:22:58;;;;;;;7.63;3.00;;;;;;;13.68;67.88;102701.25;5031520;28;20094;-77
2023/05/25 08:25:23;;;;;;;7.03;3.40;;;;;;;13.76;66.97;102694.19;5031299;28;20480;-77
2023/05/25 08:27:49;;;;;;;7.10;3.40;;;;;;;13.88;67.48;102698.44;5031286;28;20120;-77
2023/05/25 08:30:14;;;;;;;6.63;3.13;;;;;;;13.99;68.62;102696.63;5031282;28;20108;-77
2023/05/25 08:32:39;;;;;;;12.20;3.55;;;;;;;14.10;68.34;102697.34;5031333;28;20032;-77
2023/05/25 08:35:05;;;;;;;6.85;3.28;;;;;;;14.22;67.87;102696.34;5031287;28;20174;-77
2023/05/25 08:37:31;;;;;;;7.90;3.60;;;;;;;14.33;68.27;102696.25;5031272;28;20056;-77
2023/05/25 08:39:56;;;;;;;9.70;3.28;;;;;;;14.38;66.79;102698.78;5031391;28;20033;-77
2023/05/25 08:42:22;;;;;;;8.52;3.15;;;;;;;14.38;65.41;102710.13;5031275;28;20071;-77
2023/05/25 08:44:48;;;;;;;8.00;3.30;;;;;;;14.38;65.56;102709.28;5031523;28;20021;-77
2023/05/25 08:47:16;;;;;;;7.00;3.70;;;;;;;14.40;65.68;102708.34;5031172;28;20033;-77
2023/05/25 08:49:43;;;;;;;8.40;3.17;;;;;;;14.43;65.16;102697.00;5029927;28;20370;-77
2023/05/25 08:52:13;;;;;;;4.95;2.58;;;;;;;14.45;64.23;102704.81;5031464;28;20492;-77
2023/05/25 08:54:43;;;;;;;8.55;2.80;;;;;;;14.48;65.45;102704.78;5033491;28;20400;-77
2023/05/25 08:57:12;;;;;;;7.80;2.95;;;;;;;14.51;65.79;102704.75;5033532;28;20109;-77
2023/05/25 08:59:46;;;;;;;7.05;2.55;;;;;;;14.53;64.83;102718.69;5034735;28;20065;-77
2023/05/25 09:02:37;;;;;;;7.03;3.00;;;;;;;14.54;65.56;102709.94;5034624;28;20032;-77
2023/05/25 09:05:03;;;;;;;6.95;2.53;;;;;;;14.53;65.28;102713.44;5033427;28;20492;-78
2023/05/25 09:07:29;;;;;;;7.75;3.10;;;;;;;14.52;64.82;102722.19;5034535;28;20025;-77
2023/05/25 09:09:56;;;;;;;5.85;2.70;;;;;;;14.55;64.94;102711.66;5034513;28;20055;-78
2023/05/25 09:12:22;;;;;;;7.93;3.30;;;;;;;14.60;64.93;102719.50;5034459;28;20520;-77
2023/05/25 09:14:47;;;;;;;6.18;2.70;;;;;;;14.60;64.19;102719.50;5034491;28;20052;-77
2023/05/25 09:17:17;;;;;;;6.32;2.60;;;;;;;14.58;63.63;102722.13;5034479;28;20025;-78
2023/05/25 09:19:43;;;;;;;7.32;2.90;;;;;;;14.55;63.45;102722.16;5034385;28;20071;-77
2023/05/25 09:22:11;;;;;;;6.60;2.50;;;;;;;14.55;62.90;102716.91;5032973;28;20104;-78
2023/05/25 09:24:39;;;;;;;7.25;2.85;;;;;;;14.58;62.95;102719.50;5034334;28;20380;-77
2023/05/25 09:27:06;;;;;;;6.45;2.72;;;;;;;14.59;62.68;102723.84;5034222;28;20021;-78
2023/05/25 09:29:32;;;;;;;8.20;2.92;;;;;;;14.63;63.42;102719.44;5034183;28;20576;-78
2023/05/25 09:31:57;;;;;;;7.00;2.70;;;;;;;14.68;63.79;102721.16;5034372;28;20030;-78
2023/05/25 09:34:22;;;;;;;5.80;2.30;;;;;;;14.74;62.33;102725.44;5034121;28;20093;-78
2023/05/25 09:36:48;;;;;;;8.35;2.72;;;;;;;14.79;63.58;102730.63;5034186;28;20025;-77
2023/05/25 09:39:13;;;;;;;6.15;2.80;;;;;;;14.80;62.72;102735.84;5032690;28;20498;-77
2023/05/25 09:41:42;;;;;;;8.07;2.75;;;;;;;14.81;62.40;102734.09;5033901;28;20438;-77
2023/05/25 09:44:07;;;;;;;6.40;2.60;;;;;;;14.85;63.03;102725.31;5033805;28;20037;-77
2023/05/25 09:46:36;;;;;;;3.55;2.10;;;;;;;14.93;61.52;102731.31;5033920;28;20021;-77
2023/05/25 09:49:03;;;;;;;4.85;2.35;;;;;;;15.00;61.82;102732.97;5032463;28;20025;-77
2023/05/25 09:51:31;;;;;;;6.63;2.40;;;;;;;15.07;61.48;102725.88;5033622;28;20033;-77
2023/05/25 09:53:58;;;;;;;5.18;2.40;;;;;;;15.12;61.18;102728.44;5033592;28;20045;-77
2023/05/25 09:56:23;;;;;;;5.05;2.35;;;;;;;15.15;61.40;102724.00;5033637;28;20106;-77
2023/05/25 09:58:51;;;;;;;6.57;2.50;;;;;;;15.15;59.99;102723.13;5033688;28;20057;-77
2023/05/25 10:01:17;;;;;;;6.88;2.40;;;;;;;15.14;60.12;102729.28;5032435;28;20022;-77
2023/05/25 10:03:47;;;;;;;5.55;2.40;;;;;;;15.11;59.70;102731.94;5033516;28;20025;-77
2023/05/25 10:06:13;;;;;;;7.60;2.22;;;;;;;15.06;59.71;102734.63;5033528;28;20029;-78
2023/05/25 10:08:39;;;;;;;4.13;2.28;;;;;;;15.01;60.92;102737.31;5033359;28;20108;-78
2023/05/25 10:11:05;;;;;;;7.63;2.42;;;;;;;14.96;60.49;102741.75;5033376;28;20159;-77
2023/05/25 10:13:32;;;;;;;5.15;2.38;;;;;;;14.94;59.86;102740.91;5033278;28;20026;-78
2023/05/25 10:15:58;;;;;;;5.85;2.33;;;;;;;14.96;59.22;102741.75;5033358;28;20380;-77
2023/05/25 10:18:26;;;;;;;5.80;2.33;;;;;;;15.03;59.78;102738.13;5033148;28;20071;-78
2023/05/25 10:21:00;;;;;;;7.10;2.63;;;;;;;15.12;60.78;102739.75;5033190;28;20030;-78
2023/05/25 10:23:33;;;;;;;5.88;2.30;;;;;;;15.23;60.20;102737.00;5033133;28;20025;-78
2023/05/25 10:26:01;;;;;;;6.30;2.30;;;;;;;15.34;60.42;102734.22;5032092;28;20494;-77
2023/05/25 10:28:30;;;;;;;7.40;2.90;;;;;;;15.44;59.50;102730.56;5032896;28;20037;-77
2023/05/25 10:30:57;;;;;;;4.13;2.28;;;;;;;15.55;58.91;102721.66;5032918;28;20523;-77
2023/05/25 10:33:22;;;;;;;6.10;2.38;;;;;;;15.66;58.65;102726.72;5032955;28;20420;-78
2023/05/25 10:35:49;;;;;;;4.65;2.15;;;;;;;15.78;57.34;102731.75;5033050;28;20029;-77
2023/05/25 10:38:15;;;;;;;5.28;2.10;;;;;;;15.84;57.38;102731.66;5032814;28;20427;-77
2023/05/25 10:40:43;;;;;;;4.10;2.08;;;;;;;15.88;57.92;102736.00;5032830;28;20033;-77
2023/05/25 10:43:09;;;;;;;5.68;2.05;;;;;;;15.87;56.50;102736.88;5031538;28;20469;-78
2023/05/25 10:45:35;;;;;;;6.63;2.60;;;;;;;15.88;57.01;102741.25;5032268;28;20083;-78
2023/05/25 10:48:00;;;;;;;4.57;2.28;;;;;;;15.95;56.61;102735.88;5032560;28;20530;-78
2023/05/25 10:50:27;;;;;;;6.00;2.70;;;;;;;16.00;56.32;102736.66;5032696;28;20045;-77
2023/05/25 10:53:00;;;;;;;5.88;2.35;;;;;;;16.02;57.17;102727.84;5032369;28;20493;-78
2023/05/25 10:55:30;;;;;;;6.78;2.70;;;;;;;16.07;57.88;102725.13;5031161;28;20033;-78
2023/05/25 10:58:10;;;;;;;7.67;2.90;;;;;;;16.06;58.36;102732.16;5032167;28;20083;-78
2023/05/25 11:00:36;;;;;;;7.38;2.78;;;;;;;16.02;56.30;102737.50;5032681;28;20024;-78
2023/05/25 11:03:02;;;;;;;7.00;2.90;;;;;;;16.05;57.04;102732.19;5032464;28;20025;-78
2023/05/25 11:05:30;;;;;;;5.65;2.72;;;;;;;16.19;58.56;102739.78;5032146;28;20376;-78
2023/05/25 11:07:57;;;;;;;5.28;2.70;;;;;;;16.32;58.03;102730.78;5033119;28;20029;-82
2023/05/25 11:10:47;;;;;;;6.07;2.88;;;;;;;16.42;58.76;102726.22;5033609;28;20091;-83
2023/05/25 11:13:34;;;;;;;4.95;2.65;;;;;;;16.45;58.53;102723.53;5033685;28;20487;-78
2023/05/25 11:16:18;;;;;;;6.55;2.80;;;;;;;16.42;57.61;102726.22;5030350;28;20075;-78
2023/05/25 11:18:52;;;;;;;7.22;3.10;;;;;;;16.38;55.44;102725.41;5032277;28;20021;-78
2023/05/25 11:21:25;;;;;;;6.45;2.95;;;;;;;16.36;56.81;102723.72;5032119;28;20027;-78
2023/05/25 11:23:51;;;;;;;8.93;3.20;;;;;;;16.36;55.71;102721.94;5031907;28;20029;-78
2023/05/25 11:26:23;;;;;;;9.95;3.10;;;;;;;16.36;55.93;102721.09;5031559;28;20039;-78